sensor_id;sensor_type;location;lat;lon;timestamp;pressure;altitude;pressure_sealevel;temperature;humidity
50380;BME280;37474;59.468;18.040;2023-04-24T00:01:53;100153.06;;;4.43;100.00
50380;BME280;37474;59.468;18.040;2023-04-24T00:04:21;100146.59;;;4.33;100.00
50380;BME280;37474;59.468;18.040;2023-04-24T00:06:53;100161.63;;;4.18;100.00
50380;BME280;37474;59.468;18.040;2023-04-24T00:09:24;100160.59;;;4.24;100.00
50380;BME280;37474;59.468;18.040;2023-04-24T00:11:52;100170.78;;;4.26;100.00
50380;BME280;37474;59.468;18.040;2023-04-24T00:14:20;100167.97;;;4.08;100.00
50380;BME280;37474;59.468;18.040;2023-04-24T00:16:50;100171.53;;;4.04;100.00
50380;BME280;37474;59.468;18.040;2023-04-24T00:19:18;100179.34;;;4.01;100.00
50380;BME280;37474;59.468;18.040;2023-04-24T00:21:48;100146.63;;;3.81;100.00
50380;BME280;37474;59.468;18.040;2023-04-24T00:24:17;100176.56;;;4.07;100.00
50380;BME280;37474;59.468;18.040;2023-04-24T00:26:45;100182.13;;;3.93;100.00
50380;BME280;37474;59.468;18.040;2023-04-24T00:29:14;100183.91;;;3.91;100.00
50380;BME280;37474;59.468;18.040;2023-04-24T00:31:42;100191.25;;;4.02;100.00
50380;BME280;37474;59.468;18.040;2023-04-24T00:34:11;100188.97;;;3.94;100.00
50380;BME280;37474;59.468;18.040;2023-04-24T00:36:39;100193.72;;;4.05;100.00
50380;BME280;37474;59.468;18.040;2023-04-24T00:39:07;100193.88;;;4.01;100.00
50380;BME280;37474;59.468;18.040;2023-04-24T00:41:36;100191.88;;;4.09;100.00
50380;BME280;37474;59.468;18.040;2023-04-24T00:44:04;100186.56;;;3.88;100.00
50380;BME280;37474;59.468;18.040;2023-04-24T00:46:32;100194.19;;;3.91;100.00
50380;BME280;37474;59.468;18.040;2023-04-24T00:49:00;100186.06;;;3.79;100.00
50380;BME280;37474;59.468;18.040;2023-04-24T00:51:30;100188.84;;;3.71;100.00
50380;BME280;37474;59.468;18.040;2023-04-24T00:53:59;100189.53;;;3.76;100.00
50380;BME280;37474;59.468;18.040;2023-04-24T00:56:28;100192.09;;;3.76;100.00
50380;BME280;37474;59.468;18.040;2023-04-24T00:58:57;100194.81;;;3.71;100.00
50380;BME280;37474;59.468;18.040;2023-04-24T01:01:26;100192.72;;;3.84;100.00
50380;BME280;37474;59.468;18.040;2023-04-24T01:03:55;100188.06;;;3.95;100.00
50380;BME280;37474;59.468;18.040;2023-04-24T01:06:23;100199.72;;;3.79;100.00
50380;BME280;37474;59.468;18.040;2023-04-24T01:08:57;100198.13;;;3.75;100.00
50380;BME280;37474;59.468;18.040;2023-04-24T01:11:28;100200.03;;;3.68;100.00
50380;BME280;37474;59.468;18.040;2023-04-24T01:13:56;100198.72;;;3.57;100.00
50380;BME280;37474;59.468;18.040;2023-04-24T01:16:25;100141.78;;;3.19;100.00
50380;BME280;37474;59.468;18.040;2023-04-24T01:18:53;100204.63;;;3.59;100.00
50380;BME280;37474;59.468;18.040;2023-04-24T01:21:23;100202.94;;;3.58;100.00
50380;BME280;37474;59.468;18.040;2023-04-24T01:23:52;100208.72;;;3.64;100.00
50380;BME280;37474;59.468;18.040;2023-04-24T01:26:22;100210.25;;;3.42;100.00
50380;BME280;37474;59.468;18.040;2023-04-24T01:28:52;100207.44;;;3.51;100.00
50380;BME280;37474;59.468;18.040;2023-04-24T01:31:20;100212.63;;;3.48;100.00
50380;BME280;37474;59.468;18.040;2023-04-24T01:33:50;100218.97;;;3.36;100.00
50380;BME280;37474;59.468;18.040;2023-04-24T01:36:21;100225.56;;;3.45;100.00
50380;BME280;37474;59.468;18.040;2023-04-24T01:38:53;100224.41;;;3.54;100.00
50380;BME280;37474;59.468;18.040;2023-04-24T01:41:22;100229.13;;;3.39;100.00
50380;BME280;37474;59.468;18.040;2023-04-24T01:43:53;100222.94;;;3.47;100.00
50380;BME280;37474;59.468;18.040;2023-04-24T01:46:22;100235.41;;;3.29;100.00
50380;BME280;37474;59.468;18.040;2023-04-24T01:48:51;100237.16;;;3.27;100.00
50380;BME280;37474;59.468;18.040;2023-04-24T01:51:19;100202.81;;;3.05;100.00
50380;BME280;37474;59.468;18.040;2023-04-24T01:53:50;100233.41;;;3.09;100.00
50380;BME280;37474;59.468;18.040;2023-04-24T01:56:20;100233.25;;;3.15;100.00
50380;BME280;37474;59.468;18.040;2023-04-24T01:58:52;100233.41;;;3.09;100.00
50380;BME280;37474;59.468;18.040;2023-04-24T02:01:23;100231.75;;;3.08;100.00
50380;BME280;37474;59.468;18.040;2023-04-24T02:03:51;100234.00;;;3.19;100.00
50380;BME280;37474;59.468;18.040;2023-04-24T02:06:19;100233.13;;;3.20;100.00
50380;BME280;37474;59.468;18.040;2023-04-24T02:08:47;100237.56;;;3.13;100.00
50380;BME280;37474;59.468;18.040;2023-04-24T02:11:16;100238.34;;;3.15;100.00
50380;BME280;37474;59.468;18.040;2023-04-24T02:13:47;100239.47;;;3.07;100.00
50380;BME280;37474;59.468;18.040;2023-04-24T02:16:15;100229.13;;;3.11;100.00
50380;BME280;37474;59.468;18.040;2023-04-24T02:18:43;100233.22;;;3.17;100.00
50380;BME280;37474;59.468;18.040;2023-04-24T02:21:11;100242.78;;;3.10;100.00
50380;BME280;37474;59.468;18.040;2023-04-24T02:23:39;100245.19;;;3.16;100.00
50380;BME280;37474;59.468;18.040;2023-04-24T02:26:08;100247.91;;;3.10;100.00
50380;BME280;37474;59.468;18.040;2023-04-24T02:28:36;100244.44;;;3.13;100.00
50380;BME280;37474;59.468;18.040;2023-04-24T02:31:05;100243.56;;;3.42;100.00
50380;BME280;37474;59.468;18.040;2023-04-24T02:33:33;100249.19;;;3.25;100.00
50380;BME280;37474;59.468;18.040;2023-04-24T02:36:02;100242.03;;;3.36;100.00
50380;BME280;37474;59.468;18.040;2023-04-24T02:38:30;100242.34;;;3.26;100.00
50380;BME280;37474;59.468;18.040;2023-04-24T02:40:58;100214.84;;;3.03;100.00
50380;BME280;37474;59.468;18.040;2023-04-24T02:43:27;100246.56;;;3.27;100.00
50380;BME280;37474;59.468;18.040;2023-04-24T02:45:55;100237.44;;;3.18;100.00
50380;BME280;37474;59.468;18.040;2023-04-24T02:48:24;100242.47;;;3.21;100.00
50380;BME280;37474;59.468;18.040;2023-04-24T02:50:55;100247.41;;;3.27;100.00
50380;BME280;37474;59.468;18.040;2023-04-24T02:53:24;100255.19;;;3.24;100.00
50380;BME280;37474;59.468;18.040;2023-04-24T02:55:52;100258.78;;;3.18;100.00
50380;BME280;37474;59.468;18.040;2023-04-24T02:58:20;100266.66;;;3.11;100.00
50380;BME280;37474;59.468;18.040;2023-04-24T03:00:48;100265.03;;;3.08;100.00
50380;BME280;37474;59.468;18.040;2023-04-24T03:03:16;100262.97;;;3.21;100.00
50380;BME280;37474;59.468;18.040;2023-04-24T03:05:45;100261.41;;;3.17;100.00
50380;BME280;37474;59.468;18.040;2023-04-24T03:08:16;100270.09;;;3.11;100.00
50380;BME280;37474;59.468;18.040;2023-04-24T03:10:44;100265.69;;;3.15;100.00
50380;BME280;37474;59.468;18.040;2023-04-24T03:13:15;100271.63;;;3.17;100.00
50380;BME280;37474;59.468;18.040;2023-04-24T03:15:43;100276.88;;;3.12;100.00
50380;BME280;37474;59.468;18.040;2023-04-24T03:18:11;100278.06;;;3.30;100.00
50380;BME280;37474;59.468;18.040;2023-04-24T03:20:39;100278.50;;;3.15;100.00
50380;BME280;37474;59.468;18.040;2023-04-24T03:23:09;100274.91;;;3.22;100.00
50380;BME280;37474;59.468;18.040;2023-04-24T03:25:37;100280.91;;;3.21;100.00
50380;BME280;37474;59.468;18.040;2023-04-24T03:28:05;100281.34;;;3.35;100.00
50380;BME280;37474;59.468;18.040;2023-04-24T03:30:33;100273.91;;;3.26;100.00
50380;BME280;37474;59.468;18.040;2023-04-24T03:33:01;100282.63;;;3.21;100.00
50380;BME280;37474;59.468;18.040;2023-04-24T03:35:29;100274.91;;;3.22;100.00
50380;BME280;37474;59.468;18.040;2023-04-24T03:37:58;100283.91;;;3.35;100.00
50380;BME280;37474;59.468;18.040;2023-04-24T03:40:27;100288.16;;;3.36;100.00
50380;BME280;37474;59.468;18.040;2023-04-24T03:42:56;100286.84;;;3.22;100.00
50380;BME280;37474;59.468;18.040;2023-04-24T03:45:24;100288.03;;;3.11;100.00
50380;BME280;37474;59.468;18.040;2023-04-24T03:47:52;100283.94;;;3.04;100.00
50380;BME280;37474;59.468;18.040;2023-04-24T03:50:20;100286.72;;;3.26;100.00
50380;BME280;37474;59.468;18.040;2023-04-24T03:52:48;100289.09;;;3.32;100.00
50380;BME280;37474;59.468;18.040;2023-04-24T03:55:16;100293.56;;;3.26;100.00
50380;BME280;37474;59.468;18.040;2023-04-24T03:57:46;100292.69;;;3.27;100.00
50380;BME280;37474;59.468;18.040;2023-04-24T04:00:14;100294.16;;;3.06;100.00
50380;BME280;37474;59.468;18.040;2023-04-24T04:02:42;100297.75;;;3.30;100.00
50380;BME280;37474;59.468;18.040;2023-04-24T04:05:11;100297.44;;;3.40;100.00
50380;BME280;37474;59.468;18.040;2023-04-24T04:07:39;100299.59;;;3.25;100.00
50380;BME280;37474;59.468;18.040;2023-04-24T04:10:07;100312.88;;;3.37;100.00
50380;BME280;37474;59.468;18.040;2023-04-24T04:12:35;100314.13;;;3.24;100.00
50380;BME280;37474;59.468;18.040;2023-04-24T04:15:06;100315.25;;;3.14;100.00
50380;BME280;37474;59.468;18.040;2023-04-24T04:17:34;100309.47;;;3.07;100.00
50380;BME280;37474;59.468;18.040;2023-04-24T04:20:02;100322.59;;;2.95;100.00
50380;BME280;37474;59.468;18.040;2023-04-24T04:22:33;100328.13;;;3.11;100.00
50380;BME280;37474;59.468;18.040;2023-04-24T04:25:02;100341.41;;;3.25;100.00
50380;BME280;37474;59.468;18.040;2023-04-24T04:27:31;100342.97;;;3.31;100.00
50380;BME280;37474;59.468;18.040;2023-04-24T04:30:00;100355.00;;;3.27;100.00
50380;BME280;37474;59.468;18.040;2023-04-24T04:32:33;100360.78;;;3.35;100.00
50380;BME280;37474;59.468;18.040;2023-04-24T04:35:01;100360.59;;;3.41;100.00
50380;BME280;37474;59.468;18.040;2023-04-24T04:37:30;100367.03;;;3.25;100.00
50380;BME280;37474;59.468;18.040;2023-04-24T04:39:58;100364.97;;;3.38;100.00
50380;BME280;37474;59.468;18.040;2023-04-24T04:42:26;100331.41;;;3.16;100.00
50380;BME280;37474;59.468;18.040;2023-04-24T04:44:55;100385.41;;;3.41;100.00
50380;BME280;37474;59.468;18.040;2023-04-24T04:47:24;100389.72;;;3.39;100.00
50380;BME280;37474;59.468;18.040;2023-04-24T04:49:54;100395.59;;;3.42;100.00
50380;BME280;37474;59.468;18.040;2023-04-24T04:52:22;100395.75;;;3.36;100.00
50380;BME280;37474;59.468;18.040;2023-04-24T04:54:53;100403.75;;;3.26;100.00
50380;BME280;37474;59.468;18.040;2023-04-24T04:57:21;100409.69;;;3.28;100.00
50380;BME280;37474;59.468;18.040;2023-04-24T04:59:49;100413.06;;;3.28;100.00
50380;BME280;37474;59.468;18.040;2023-04-24T05:02:17;100417.28;;;3.31;100.00
50380;BME280;37474;59.468;18.040;2023-04-24T05:04:45;100417.22;;;3.32;100.00
50380;BME280;37474;59.468;18.040;2023-04-24T05:07:18;100421.56;;;3.30;100.00
50380;BME280;37474;59.468;18.040;2023-04-24T05:09:46;100423.22;;;3.31;100.00
50380;BME280;37474;59.468;18.040;2023-04-24T05:12:14;100426.19;;;3.49;100.00
50380;BME280;37474;59.468;18.040;2023-04-24T05:14:42;100432.25;;;3.46;100.00
50380;BME280;37474;59.468;18.040;2023-04-24T05:17:10;100421.38;;;3.36;100.00
50380;BME280;37474;59.468;18.040;2023-04-24T05:19:38;100422.66;;;3.20;100.00
50380;BME280;37474;59.468;18.040;2023-04-24T05:22:07;100426.84;;;3.24;100.00
50380;BME280;37474;59.468;18.040;2023-04-24T05:24:37;100428.47;;;3.27;100.00
50380;BME280;37474;59.468;18.040;2023-04-24T05:27:05;100429.28;;;3.29;100.00
50380;BME280;37474;59.468;18.040;2023-04-24T05:29:33;100424.75;;;3.38;100.00
50380;BME280;37474;59.468;18.040;2023-04-24T05:32:02;100420.63;;;3.33;100.00
50380;BME280;37474;59.468;18.040;2023-04-24T05:34:30;100420.09;;;3.20;100.00
50380;BME280;37474;59.468;18.040;2023-04-24T05:36:58;100422.50;;;3.26;100.00
50380;BME280;37474;59.468;18.040;2023-04-24T05:39:26;100422.66;;;3.20;100.00
50380;BME280;37474;59.468;18.040;2023-04-24T05:41:55;100417.94;;;3.05;100.00
50380;BME280;37474;59.468;18.040;2023-04-24T05:44:25;100426.13;;;3.19;100.00
50380;BME280;37474;59.468;18.040;2023-04-24T05:46:53;100421.78;;;3.21;100.00
50380;BME280;37474;59.468;18.040;2023-04-24T05:49:22;100436.88;;;3.33;100.00
50380;BME280;37474;59.468;18.040;2023-04-24T05:51:50;100439.41;;;3.33;100.00
50380;BME280;37474;59.468;18.040;2023-04-24T05:54:18;100427.78;;;3.20;100.00
50380;BME280;37474;59.468;18.040;2023-04-24T05:56:46;100436.13;;;3.28;100.00
50380;BME280;37474;59.468;18.040;2023-04-24T05:59:16;100439.66;;;3.24;100.00
50380;BME280;37474;59.468;18.040;2023-04-24T06:01:43;100441.22;;;3.30;100.00
50380;BME280;37474;59.468;18.040;2023-04-24T06:04:12;100430.50;;;3.14;100.00
50380;BME280;37474;59.468;18.040;2023-04-24T06:06:41;100438.38;;;3.08;100.00
50380;BME280;37474;59.468;18.040;2023-04-24T06:09:09;100407.22;;;2.90;100.00
50380;BME280;37474;59.468;18.040;2023-04-24T06:11:38;100445.81;;;3.17;100.00
50380;BME280;37474;59.468;18.040;2023-04-24T06:14:06;100442.53;;;3.12;100.00
50380;BME280;37474;59.468;18.040;2023-04-24T06:16:35;100442.09;;;3.29;100.00
50380;BME280;37474;59.468;18.040;2023-04-24T06:19:05;100442.53;;;3.12;100.00
50380;BME280;37474;59.468;18.040;2023-04-24T06:21:33;100440.00;;;3.10;100.00
50380;BME280;37474;59.468;18.040;2023-04-24T06:24:01;100441.25;;;3.28;100.00
50380;BME280;37474;59.468;18.040;2023-04-24T06:26:30;100448.78;;;3.34;100.00
50380;BME280;37474;59.468;18.040;2023-04-24T06:28:58;100450.22;;;3.44;100.00
50380;BME280;37474;59.468;18.040;2023-04-24T06:31:27;100435.75;;;3.42;100.00
50380;BME280;37474;59.468;18.040;2023-04-24T06:33:56;100445.94;;;3.45;100.00
50380;BME280;37474;59.468;18.040;2023-04-24T06:36:24;100443.88;;;3.58;100.00
50380;BME280;37474;59.468;18.040;2023-04-24T06:38:53;100441.22;;;3.30;100.00
50380;BME280;37474;59.468;18.040;2023-04-24T06:41:21;100452.97;;;3.37;100.00
50380;BME280;37474;59.468;18.040;2023-04-24T06:43:49;100452.25;;;3.32;100.00
50380;BME280;37474;59.468;18.040;2023-04-24T06:46:17;100449.41;;;3.42;100.00
50380;BME280;37474;59.468;18.040;2023-04-24T06:48:45;100461.16;;;3.51;100.00
50380;BME280;37474;59.468;18.040;2023-04-24T06:51:14;100462.06;;;3.49;100.00
50380;BME280;37474;59.468;18.040;2023-04-24T06:53:44;100463.06;;;3.43;100.00
50380;BME280;37474;59.468;18.040;2023-04-24T06:56:14;100457.25;;;3.36;100.00
50380;BME280;37474;59.468;18.040;2023-04-24T06:58:42;100457.88;;;3.46;100.00
50380;BME280;37474;59.468;18.040;2023-04-24T07:01:11;100461.00;;;3.57;100.00
50380;BME280;37474;59.468;18.040;2023-04-24T07:03:39;100461.19;;;3.81;100.00
50380;BME280;37474;59.468;18.040;2023-04-24T07:06:09;100458.31;;;3.60;100.00
50380;BME280;37474;59.468;18.040;2023-04-24T07:08:39;100463.91;;;3.43;100.00
50380;BME280;37474;59.468;18.040;2023-04-24T07:11:08;100466.19;;;3.54;100.00
50380;BME280;37474;59.468;18.040;2023-04-24T07:13:36;100473.59;;;3.65;100.00
50380;BME280;37474;59.468;18.040;2023-04-24T07:16:08;100477.09;;;3.62;100.00
50380;BME280;37474;59.468;18.040;2023-04-24T07:18:38;100475.25;;;3.66;100.00
50380;BME280;37474;59.468;18.040;2023-04-24T07:21:06;100486.59;;;3.88;100.00
50380;BME280;37474;59.468;18.040;2023-04-24T07:23:34;100490.22;;;4.12;100.00
50380;BME280;37474;59.468;18.040;2023-04-24T07:26:04;100492.13;;;4.06;100.00
50380;BME280;37474;59.468;18.040;2023-04-24T07:28:32;100496.63;;;4.27;100.00
50380;BME280;37474;59.468;18.040;2023-04-24T07:31:00;100503.66;;;3.91;100.00
50380;BME280;37474;59.468;18.040;2023-04-24T07:33:28;100500.66;;;4.06;100.00
50380;BME280;37474;59.468;18.040;2023-04-24T07:35:56;100508.13;;;3.84;100.00
50380;BME280;37474;59.468;18.040;2023-04-24T07:38:29;100498.56;;;3.89;100.00
50380;BME280;37474;59.468;18.040;2023-04-24T07:40:57;100512.44;;;3.82;100.00
50380;BME280;37474;59.468;18.040;2023-04-24T07:43:27;100520.41;;;3.71;100.00
50380;BME280;37474;59.468;18.040;2023-04-24T07:45:55;100527.84;;;3.81;100.00
50380;BME280;37474;59.468;18.040;2023-04-24T07:48:23;100515.81;;;3.84;100.00
50380;BME280;37474;59.468;18.040;2023-04-24T07:50:52;100542.91;;;3.93;100.00
50380;BME280;37474;59.468;18.040;2023-04-24T07:53:21;100550.91;;;4.13;100.00
50380;BME280;37474;59.468;18.040;2023-04-24T07:55:49;100558.97;;;4.00;100.00
50380;BME280;37474;59.468;18.040;2023-04-24T07:58:17;100552.44;;;3.88;100.00
50380;BME280;37474;59.468;18.040;2023-04-24T08:00:46;100550.44;;;3.99;100.00
50380;BME280;37474;59.468;18.040;2023-04-24T08:03:14;100555.22;;;3.80;100.00
50380;BME280;37474;59.468;18.040;2023-04-24T08:05:46;100532.94;;;3.82;100.00
50380;BME280;37474;59.468;18.040;2023-04-24T08:08:14;100561.59;;;4.29;100.00
50380;BME280;37474;59.468;18.040;2023-04-24T08:10:42;100565.38;;;4.16;100.00
50380;BME280;37474;59.468;18.040;2023-04-24T08:13:10;100560.75;;;3.97;100.00
50380;BME280;37474;59.468;18.040;2023-04-24T08:15:42;100555.25;;;4.11;100.00
50380;BME280;37474;59.468;18.040;2023-04-24T08:18:11;100561.69;;;3.95;100.00
50380;BME280;37474;59.468;18.040;2023-04-24T08:20:40;100560.78;;;4.27;100.00
50380;BME280;37474;59.468;18.040;2023-04-24T08:23:08;100561.59;;;4.59;100.00
50380;BME280;37474;59.468;18.040;2023-04-24T08:25:36;100557.78;;;4.42;100.00
50380;BME280;37474;59.468;18.040;2023-04-24T08:28:06;100558.69;;;4.69;100.00
50380;BME280;37474;59.468;18.040;2023-04-24T08:30:34;100556.47;;;4.87;100.00
50380;BME280;37474;59.468;18.040;2023-04-24T08:33:02;100554.41;;;4.98;100.00
50380;BME280;37474;59.468;18.040;2023-04-24T08:35:31;100559.13;;;5.12;100.00
50380;BME280;37474;59.468;18.040;2023-04-24T08:37:59;100570.31;;;5.09;100.00
50380;BME280;37474;59.468;18.040;2023-04-24T08:40:28;100572.66;;;5.17;100.00
50380;BME280;37474;59.468;18.040;2023-04-24T08:42:58;100569.09;;;4.94;100.00
50380;BME280;37474;59.468;18.040;2023-04-24T08:45:27;100571.41;;;5.02;100.00
50380;BME280;37474;59.468;18.040;2023-04-24T08:47:57;100570.19;;;5.14;100.00
50380;BME280;37474;59.468;18.040;2023-04-24T08:50:26;100547.38;;;5.03;100.00
50380;BME280;37474;59.468;18.040;2023-04-24T08:52:56;100516.75;;;4.41;100.00
50380;BME280;37474;59.468;18.040;2023-04-24T08:55:25;100575.59;;;5.04;100.00
50380;BME280;37474;59.468;18.040;2023-04-24T08:57:53;100582.97;;;4.89;100.00
50380;BME280;37474;59.468;18.040;2023-04-24T09:00:22;100533.13;;;4.94;100.00
50380;BME280;37474;59.468;18.040;2023-04-24T09:02:52;100575.81;;;5.25;100.00
50380;BME280;37474;59.468;18.040;2023-04-24T09:05:22;100581.19;;;5.44;100.00
50380;BME280;37474;59.468;18.040;2023-04-24T09:07:56;100582.59;;;4.99;100.00
50380;BME280;37474;59.468;18.040;2023-04-24T09:10:25;100586.13;;;4.97;100.00
50380;BME280;37474;59.468;18.040;2023-04-24T09:12:54;100580.88;;;5.28;100.00
50380;BME280;37474;59.468;18.040;2023-04-24T09:15:25;100574.34;;;5.18;100.00
50380;BME280;37474;59.468;18.040;2023-04-24T09:17:53;100581.28;;;5.14;100.00
50380;BME280;37474;59.468;18.040;2023-04-24T09:20:21;100576.38;;;5.35;100.00
50380;BME280;37474;59.468;18.040;2023-04-24T09:22:53;100572.75;;;5.40;100.00
50380;BME280;37474;59.468;18.040;2023-04-24T09:25:25;100577.69;;;5.46;100.00
50380;BME280;37474;59.468;18.040;2023-04-24T09:28:00;100568.78;;;5.81;100.00
50380;BME280;37474;59.468;18.040;2023-04-24T09:30:29;100579.09;;;5.56;99.21
50380;BME280;37474;59.468;18.040;2023-04-24T09:33:10;100572.34;;;5.52;100.00
50380;BME280;37474;59.468;18.040;2023-04-24T09:35:41;100579.22;;;5.77;100.00
50380;BME280;37474;59.468;18.040;2023-04-24T09:38:10;100580.47;;;5.92;100.00
50380;BME280;37474;59.468;18.040;2023-04-24T09:40:39;100592.53;;;6.15;96.18
50380;BME280;37474;59.468;18.040;2023-04-24T09:43:10;100587.28;;;5.94;96.86
50380;BME280;37474;59.468;18.040;2023-04-24T09:45:39;100586.56;;;5.89;99.98
50380;BME280;37474;59.468;18.040;2023-04-24T09:48:09;100584.25;;;6.06;99.63
50380;BME280;37474;59.468;18.040;2023-04-24T09:50:38;100591.03;;;6.09;99.90
50380;BME280;37474;59.468;18.040;2023-04-24T09:53:06;100587.28;;;5.94;99.16
50380;BME280;37474;59.468;18.040;2023-04-24T09:55:45;100573.84;;;6.09;98.73
50380;BME280;37474;59.468;18.040;2023-04-24T09:58:15;100580.41;;;5.95;98.46
50380;BME280;37474;59.468;18.040;2023-04-24T10:00:45;100574.00;;;5.80;99.16
50380;BME280;37474;59.468;18.040;2023-04-24T10:03:13;100576.28;;;5.88;100.00
50380;BME280;37474;59.468;18.040;2023-04-24T10:05:44;100575.03;;;6.01;99.08
50380;BME280;37474;59.468;18.040;2023-04-24T10:08:13;100543.03;;;6.31;97.55
50380;BME280;37474;59.468;18.040;2023-04-24T10:10:44;100576.63;;;6.52;95.46
50380;BME280;37474;59.468;18.040;2023-04-24T10:13:13;100582.88;;;6.21;97.08
50380;BME280;37474;59.468;18.040;2023-04-24T10:15:42;100569.19;;;6.44;95.36
50380;BME280;37474;59.468;18.040;2023-04-24T10:18:11;100579.22;;;6.27;96.49
50380;BME280;37474;59.468;18.040;2023-04-24T10:20:40;100578.59;;;5.97;97.42
50380;BME280;37474;59.468;18.040;2023-04-24T10:23:08;100574.38;;;6.19;97.12
50380;BME280;37474;59.468;18.040;2023-04-24T10:25:37;100566.72;;;6.18;96.10
50380;BME280;37474;59.468;18.040;2023-04-24T10:28:06;100573.66;;;6.39;95.50
50380;BME280;37474;59.468;18.040;2023-04-24T10:30:36;100571.31;;;6.55;94.48
50380;BME280;37474;59.468;18.040;2023-04-24T10:33:06;100579.94;;;6.55;94.80
50380;BME280;37474;59.468;18.040;2023-04-24T10:35:37;100538.47;;;5.91;96.57
50380;BME280;37474;59.468;18.040;2023-04-24T10:38:09;100580.41;;;5.95;98.14
50380;BME280;37474;59.468;18.040;2023-04-24T10:40:39;100584.44;;;6.02;98.67
50380;BME280;37474;59.468;18.040;2023-04-24T10:43:08;100588.19;;;6.17;98.29
50380;BME280;37474;59.468;18.040;2023-04-24T10:45:38;100591.53;;;5.95;97.11
50380;BME280;37474;59.468;18.040;2023-04-24T10:48:08;100594.78;;;6.00;98.61
50380;BME280;37474;59.468;18.040;2023-04-24T10:50:45;100599.50;;;6.13;97.42
50380;BME280;37474;59.468;18.040;2023-04-24T10:53:15;100605.19;;;6.21;97.85
50380;BME280;37474;59.468;18.040;2023-04-24T10:55:46;100596.84;;;6.39;95.20
50380;BME280;37474;59.468;18.040;2023-04-24T10:58:16;100598.59;;;6.14;96.00
50380;BME280;37474;59.468;18.040;2023-04-24T11:00:54;100595.88;;;6.18;95.85
50380;BME280;37474;59.468;18.040;2023-04-24T11:03:25;100603.97;;;6.31;95.97
50380;BME280;37474;59.468;18.040;2023-04-24T11:05:57;100604.81;;;6.31;96.96
50380;BME280;37474;59.468;18.040;2023-04-24T11:08:32;100612.59;;;6.53;95.89
50380;BME280;37474;59.468;18.040;2023-04-24T11:11:03;100613.28;;;6.58;93.16
50380;BME280;37474;59.468;18.040;2023-04-24T11:14:05;100608.34;;;6.52;95.20
50380;BME280;37474;59.468;18.040;2023-04-24T11:16:37;100610.03;;;6.53;95.11
50380;BME280;37474;59.468;18.040;2023-04-24T11:19:08;100584.81;;;6.15;95.21
50380;BME280;37474;59.468;18.040;2023-04-24T11:21:41;100611.56;;;6.11;98.82
50380;BME280;37474;59.468;18.040;2023-04-24T11:24:30;100605.56;;;6.10;99.15
50380;BME280;37474;59.468;18.040;2023-04-24T11:27:00;100599.06;;;6.25;98.33
50380;BME280;37474;59.468;18.040;2023-04-24T11:29:42;100599.81;;;6.27;98.02
50380;BME280;37474;59.468;18.040;2023-04-24T11:32:16;100596.75;;;6.17;96.60
50380;BME280;37474;59.468;18.040;2023-04-24T11:34:47;100592.97;;;6.27;97.70
50380;BME280;37474;59.468;18.040;2023-04-24T11:37:15;100597.44;;;6.46;95.95
50380;BME280;37474;59.468;18.040;2023-04-24T11:39:44;100602.16;;;6.34;96.71
50380;BME280;37474;59.468;18.040;2023-04-24T11:42:14;100606.13;;;6.67;94.30
50380;BME280;37474;59.468;18.040;2023-04-24T11:44:44;100595.47;;;6.29;95.35
50380;BME280;37474;59.468;18.040;2023-04-24T11:47:14;100609.97;;;6.31;95.35
50380;BME280;37474;59.468;18.040;2023-04-24T11:49:42;100613.25;;;6.12;97.09
50380;BME280;37474;59.468;18.040;2023-04-24T11:52:10;100619.91;;;5.92;98.16
50380;BME280;37474;59.468;18.040;2023-04-24T11:54:47;100616.94;;;5.78;99.09
50380;BME280;37474;59.468;18.040;2023-04-24T11:57:15;100615.09;;;5.81;99.74
50380;BME280;37474;59.468;18.040;2023-04-24T11:59:47;100612.72;;;6.02;100.00
50380;BME280;37474;59.468;18.040;2023-04-24T12:02:25;100618.56;;;6.07;99.70
50380;BME280;37474;59.468;18.040;2023-04-24T12:04:54;100624.03;;;6.23;98.15
50380;BME280;37474;59.468;18.040;2023-04-24T12:07:23;100614.41;;;6.28;97.51
50380;BME280;37474;59.468;18.040;2023-04-24T12:09:56;100618.28;;;6.15;99.05
50380;BME280;37474;59.468;18.040;2023-04-24T12:12:26;100552.19;;;5.65;99.77
50380;BME280;37474;59.468;18.040;2023-04-24T12:14:57;100619.88;;;6.19;99.29
50380;BME280;37474;59.468;18.040;2023-04-24T12:17:28;100615.66;;;5.91;100.00
50380;BME280;37474;59.468;18.040;2023-04-24T12:19:58;100615.72;;;5.88;100.00
50380;BME280;37474;59.468;18.040;2023-04-24T12:22:28;100598.63;;;5.87;100.00
50380;BME280;37474;59.468;18.040;2023-04-24T12:25:00;100602.28;;;5.80;100.00
50380;BME280;37474;59.468;18.040;2023-04-24T12:27:30;100610.44;;;5.68;100.00
50380;BME280;37474;59.468;18.040;2023-04-24T12:30:02;100612.03;;;5.70;100.00
50380;BME280;37474;59.468;18.040;2023-04-24T12:32:31;100620.09;;;5.60;100.00
50380;BME280;37474;59.468;18.040;2023-04-24T12:35:00;100567.81;;;5.34;100.00
50380;BME280;37474;59.468;18.040;2023-04-24T12:37:33;100614.81;;;5.64;100.00
50380;BME280;37474;59.468;18.040;2023-04-24T12:40:03;100615.28;;;5.50;100.00
50380;BME280;37474;59.468;18.040;2023-04-24T12:42:34;100615.59;;;5.93;100.00
50380;BME280;37474;59.468;18.040;2023-04-24T12:45:05;100613.88;;;5.93;100.00
50380;BME280;37474;59.468;18.040;2023-04-24T12:47:34;100614.72;;;6.19;99.30
50380;BME280;37474;59.468;18.040;2023-04-24T12:50:04;100608.34;;;6.05;100.00
50380;BME280;37474;59.468;18.040;2023-04-24T12:52:32;100575.44;;;5.89;99.69
50380;BME280;37474;59.468;18.040;2023-04-24T12:55:00;100598.97;;;6.28;97.29